Aérodrome :
LOGIN :

S'inscrire | Disclaimer

   EN    FR    IT 

 










Légende :    VFR   VFR Marginal   IFR   IFR Intensif   IFR Très Intensif
Visi : 
Plafond : 
>= 8 km
>= 3000ft
5 à 8 km
1000 à 3000 ft
1500m à 5 km
500 à 1000 ft
800 à 1500m
200 à 500 ft
< 800m
< 200 ft
Symboles :   Orages  Brouillard  Fortes neiges  Fortes précipitations  Vent > 20 kt
SIGMETs :   Divers  Orages  Givrage  Turbulence  Onde Orograph.  Cendres Volcan.






- Altitude de l'aérodrome : 604 ft
- Code IATA : LCJ


EPLL - Lodz

DERNIER METAR :
  • 020530Z 09005KT 9000 NSC 06/05 Q1010

METARs EXPIRÉS :
  • 020500Z 09005KT 9000 NSC 06/05 Q1010
  • 020430Z 09006KT 9000 NSC 06/05 Q1010
  • 012100Z 10006KT 070V150 4000 -RA BR FEW007 BKN047 07/06 Q1011
  • 020400Z 09006KT 9000 BKN046 06/05 Q1010
  • 020330Z 10006KT 9000 NSC 06/05 Q1010
  • 020300Z 09006KT 9000 SCT048 06/05 Q1010
  • 020230Z 10005KT 070V140 9000 BKN043 07/05 Q1010
  • 020200Z 10005KT 070V130 9000 BKN043 07/05 Q1011
  • 020130Z 10006KT 080V140 9000 FEW044 07/05 Q1011
  • 020100Z 09006KT 070V140 9000 NSC 07/05 Q1011

TAF TAF EPLL
Valide du 02 à 00h jusqu'au 03 à 00h UTC


012330Z 0200/0224 11010KT 7000 NSC
TEMPO 0200/0206 4000 BR
PROB40 0202/0207 BKN014
PROB40
TEMPO 0214/0218 -SHRA BKN020TCU



MET'MAP, la Météo Aéronautique d'un coup d'oeil ! - Copyright ORBIFLY Décembre 2007 - Disclaimer

ORBIFLY MET'MAP TEAM :

Programmation & Développement : Alexandra Zaïnal
Sur une idée originale de : Baudouin d'Aumeries
Soutien technique & logistique : Manuel Goepfert
Assistance : Marc-Olivier Méhu




SOURCES & CREDITS :

   NOAA